sensor_id;sensor_type;location;lat;lon;timestamp;P1;durP1;ratioP1;P2;durP2;ratioP2
82475;SDS011;72099;43.176;76.872;2024-02-04T00:01:58;8.55;;;3.95;;
82475;SDS011;72099;43.176;76.872;2024-02-04T00:04:59;11.80;;;3.95;;
82475;SDS011;72099;43.176;76.872;2024-02-04T00:08:01;11.75;;;5.15;;
82475;SDS011;72099;43.176;76.872;2024-02-04T00:11:02;9.00;;;4.88;;
82475;SDS011;72099;43.176;76.872;2024-02-04T00:14:08;7.80;;;3.80;;
82475;SDS011;72099;43.176;76.872;2024-02-04T00:17:09;8.80;;;4.18;;
82475;SDS011;72099;43.176;76.872;2024-02-04T00:20:10;11.00;;;4.82;;
82475;SDS011;72099;43.176;76.872;2024-02-04T00:23:11;11.23;;;4.63;;
82475;SDS011;72099;43.176;76.872;2024-02-04T00:26:12;11.55;;;4.53;;
82475;SDS011;72099;43.176;76.872;2024-02-04T00:29:12;12.02;;;4.65;;
82475;SDS011;72099;43.176;76.872;2024-02-04T00:32:13;9.50;;;4.78;;
82475;SDS011;72099;43.176;76.872;2024-02-04T00:35:14;12.88;;;5.32;;
82475;SDS011;72099;43.176;76.872;2024-02-04T00:38:21;10.40;;;4.75;;
82475;SDS011;72099;43.176;76.872;2024-02-04T00:41:22;11.18;;;4.82;;
82475;SDS011;72099;43.176;76.872;2024-02-04T00:44:23;11.80;;;4.60;;
82475;SDS011;72099;43.176;76.872;2024-02-04T00:47:24;12.25;;;4.90;;
82475;SDS011;72099;43.176;76.872;2024-02-04T00:50:26;10.52;;;4.03;;
82475;SDS011;72099;43.176;76.872;2024-02-04T00:53:26;8.43;;;3.97;;
82475;SDS011;72099;43.176;76.872;2024-02-04T00:56:33;6.80;;;3.42;;
82475;SDS011;72099;43.176;76.872;2024-02-04T00:59:34;8.13;;;3.10;;
82475;SDS011;72099;43.176;76.872;2024-02-04T01:02:35;9.60;;;3.38;;
82475;SDS011;72099;43.176;76.872;2024-02-04T01:05:36;6.80;;;2.90;;
82475;SDS011;72099;43.176;76.872;2024-02-04T01:08:37;7.75;;;3.53;;
82475;SDS011;72099;43.176;76.872;2024-02-04T01:11:38;5.38;;;2.50;;
82475;SDS011;72099;43.176;76.872;2024-02-04T01:14:38;3.38;;;1.77;;
82475;SDS011;72099;43.176;76.872;2024-02-04T01:17:39;4.25;;;2.13;;
82475;SDS011;72099;43.176;76.872;2024-02-04T01:20:40;3.78;;;1.48;;
82475;SDS011;72099;43.176;76.872;2024-02-04T01:23:41;3.95;;;1.73;;
82475;SDS011;72099;43.176;76.872;2024-02-04T01:26:42;6.10;;;1.98;;
82475;SDS011;72099;43.176;76.872;2024-02-04T01:29:43;2.63;;;1.38;;
82475;SDS011;72099;43.176;76.872;2024-02-04T01:32:43;11.65;;;1.90;;
82475;SDS011;72099;43.176;76.872;2024-02-04T01:35:45;2.00;;;1.33;;
82475;SDS011;72099;43.176;76.872;2024-02-04T01:38:46;2.15;;;1.20;;
82475;SDS011;72099;43.176;76.872;2024-02-04T01:41:47;4.28;;;1.13;;
82475;SDS011;72099;43.176;76.872;2024-02-04T01:44:48;3.13;;;1.20;;
82475;SDS011;72099;43.176;76.872;2024-02-04T01:47:49;3.08;;;1.20;;
82475;SDS011;72099;43.176;76.872;2024-02-04T01:50:50;3.05;;;0.85;;
82475;SDS011;72099;43.176;76.872;2024-02-04T01:53:53;1.05;;;0.70;;
82475;SDS011;72099;43.176;76.872;2024-02-04T01:56:54;1.33;;;0.93;;
82475;SDS011;72099;43.176;76.872;2024-02-04T01:59:55;2.58;;;1.13;;
82475;SDS011;72099;43.176;76.872;2024-02-04T02:02:57;0.63;;;0.45;;
82475;SDS011;72099;43.176;76.872;2024-02-04T02:06:00;2.53;;;1.23;;
82475;SDS011;72099;43.176;76.872;2024-02-04T02:09:01;1.88;;;1.00;;
82475;SDS011;72099;43.176;76.872;2024-02-04T02:12:10;1.05;;;0.28;;
82475;SDS011;72099;43.176;76.872;2024-02-04T02:15:15;1.65;;;0.60;;
82475;SDS011;72099;43.176;76.872;2024-02-04T02:22:02;0.52;;;0.22;;
82475;SDS011;72099;43.176;76.872;2024-02-04T02:25:15;0.93;;;0.68;;
82475;SDS011;72099;43.176;76.872;2024-02-04T02:28:20;1.52;;;0.73;;
82475;SDS011;72099;43.176;76.872;2024-02-04T02:31:21;1.13;;;0.60;;
82475;SDS011;72099;43.176;76.872;2024-02-04T02:34:22;0.60;;;0.40;;
82475;SDS011;72099;43.176;76.872;2024-02-04T02:37:27;1.55;;;0.75;;
82475;SDS011;72099;43.176;76.872;2024-02-04T02:40:49;0.70;;;0.52;;
82475;SDS011;72099;43.176;76.872;2024-02-04T02:43:54;0.38;;;0.35;;
82475;SDS011;72099;43.176;76.872;2024-02-04T02:46:59;6.70;;;0.68;;
82475;SDS011;72099;43.176;76.872;2024-02-04T02:50:01;1.20;;;0.68;;
82475;SDS011;72099;43.176;76.872;2024-02-04T02:53:02;2.15;;;0.95;;
82475;SDS011;72099;43.176;76.872;2024-02-04T02:56:03;2.33;;;1.17;;
82475;SDS011;72099;43.176;76.872;2024-02-04T02:59:04;0.77;;;0.65;;
82475;SDS011;72099;43.176;76.872;2024-02-04T03:02:05;1.42;;;1.10;;
82475;SDS011;72099;43.176;76.872;2024-02-04T03:05:08;2.55;;;1.10;;
82475;SDS011;72099;43.176;76.872;2024-02-04T03:08:09;2.50;;;1.45;;
82475;SDS011;72099;43.176;76.872;2024-02-04T03:11:10;3.90;;;1.80;;
82475;SDS011;72099;43.176;76.872;2024-02-04T03:14:11;3.67;;;2.20;;
82475;SDS011;72099;43.176;76.872;2024-02-04T03:17:14;8.80;;;3.22;;
82475;SDS011;72099;43.176;76.872;2024-02-04T03:20:15;5.45;;;2.53;;
82475;SDS011;72099;43.176;76.872;2024-02-04T03:23:16;5.32;;;2.33;;
82475;SDS011;72099;43.176;76.872;2024-02-04T03:26:17;7.75;;;3.08;;
82475;SDS011;72099;43.176;76.872;2024-02-04T03:29:20;7.88;;;3.00;;
82475;SDS011;72099;43.176;76.872;2024-02-04T03:32:21;5.13;;;2.30;;
82475;SDS011;72099;43.176;76.872;2024-02-04T03:35:22;8.00;;;3.65;;
82475;SDS011;72099;43.176;76.872;2024-02-04T03:38:23;7.25;;;3.28;;
82475;SDS011;72099;43.176;76.872;2024-02-04T03:41:24;8.32;;;4.20;;
82475;SDS011;72099;43.176;76.872;2024-02-04T03:44:25;8.98;;;4.28;;
82475;SDS011;72099;43.176;76.872;2024-02-04T03:47:26;8.73;;;4.05;;
82475;SDS011;72099;43.176;76.872;2024-02-04T03:50:27;12.15;;;4.22;;
82475;SDS011;72099;43.176;76.872;2024-02-04T03:53:28;12.40;;;4.47;;
82475;SDS011;72099;43.176;76.872;2024-02-04T03:56:29;11.52;;;5.18;;
82475;SDS011;72099;43.176;76.872;2024-02-04T03:59:31;10.77;;;4.50;;
82475;SDS011;72099;43.176;76.872;2024-02-04T04:02:32;12.70;;;5.03;;
82475;SDS011;72099;43.176;76.872;2024-02-04T04:05:32;17.33;;;4.68;;
82475;SDS011;72099;43.176;76.872;2024-02-04T04:08:33;14.10;;;5.05;;
82475;SDS011;72099;43.176;76.872;2024-02-04T04:11:34;10.32;;;4.85;;
82475;SDS011;72099;43.176;76.872;2024-02-04T04:14:35;13.27;;;4.50;;
82475;SDS011;72099;43.176;76.872;2024-02-04T04:17:36;8.20;;;3.35;;
82475;SDS011;72099;43.176;76.872;2024-02-04T04:20:36;9.52;;;4.28;;
82475;SDS011;72099;43.176;76.872;2024-02-04T04:23:37;8.15;;;3.55;;
82475;SDS011;72099;43.176;76.872;2024-02-04T04:26:38;11.60;;;4.50;;
82475;SDS011;72099;43.176;76.872;2024-02-04T04:29:39;10.80;;;4.85;;
82475;SDS011;72099;43.176;76.872;2024-02-04T04:32:40;11.60;;;4.68;;
82475;SDS011;72099;43.176;76.872;2024-02-04T04:35:41;10.75;;;4.40;;
82475;SDS011;72099;43.176;76.872;2024-02-04T04:38:41;9.93;;;4.40;;
82475;SDS011;72099;43.176;76.872;2024-02-04T04:41:43;10.65;;;4.28;;
82475;SDS011;72099;43.176;76.872;2024-02-04T04:44:45;10.25;;;4.60;;
82475;SDS011;72099;43.176;76.872;2024-02-04T04:50:47;6.63;;;3.53;;
82475;SDS011;72099;43.176;76.872;2024-02-04T04:53:48;13.73;;;4.93;;
82475;SDS011;72099;43.176;76.872;2024-02-04T04:56:49;12.23;;;4.00;;
82475;SDS011;72099;43.176;76.872;2024-02-04T04:59:49;9.45;;;4.07;;
82475;SDS011;72099;43.176;76.872;2024-02-04T05:02:50;9.27;;;4.53;;
82475;SDS011;72099;43.176;76.872;2024-02-04T05:05:51;9.75;;;4.85;;
82475;SDS011;72099;43.176;76.872;2024-02-04T05:08:52;8.27;;;4.25;;
82475;SDS011;72099;43.176;76.872;2024-02-04T05:11:53;12.38;;;4.88;;
82475;SDS011;72099;43.176;76.872;2024-02-04T05:14:54;12.88;;;5.05;;
82475;SDS011;72099;43.176;76.872;2024-02-04T05:17:55;11.27;;;5.10;;
82475;SDS011;72099;43.176;76.872;2024-02-04T05:20:56;10.90;;;5.03;;
82475;SDS011;72099;43.176;76.872;2024-02-04T05:23:56;10.57;;;5.32;;
82475;SDS011;72099;43.176;76.872;2024-02-04T05:26:57;11.45;;;4.88;;
82475;SDS011;72099;43.176;76.872;2024-02-04T05:29:58;9.57;;;4.72;;
82475;SDS011;72099;43.176;76.872;2024-02-04T05:32:59;13.05;;;4.72;;
82475;SDS011;72099;43.176;76.872;2024-02-04T05:36:00;10.25;;;4.68;;
82475;SDS011;72099;43.176;76.872;2024-02-04T05:39:10;11.68;;;5.35;;
82475;SDS011;72099;43.176;76.872;2024-02-04T05:42:12;11.88;;;6.28;;
82475;SDS011;72099;43.176;76.872;2024-02-04T05:45:13;12.95;;;6.60;;
82475;SDS011;72099;43.176;76.872;2024-02-04T05:48:13;12.93;;;5.40;;
82475;SDS011;72099;43.176;76.872;2024-02-04T05:51:14;11.18;;;5.45;;
82475;SDS011;72099;43.176;76.872;2024-02-04T05:54:15;13.35;;;5.70;;
82475;SDS011;72099;43.176;76.872;2024-02-04T05:57:16;14.23;;;7.28;;
82475;SDS011;72099;43.176;76.872;2024-02-04T06:00:17;15.73;;;7.65;;
82475;SDS011;72099;43.176;76.872;2024-02-04T06:03:18;16.38;;;7.25;;
82475;SDS011;72099;43.176;76.872;2024-02-04T06:06:19;16.63;;;8.25;;
82475;SDS011;72099;43.176;76.872;2024-02-04T06:09:20;15.07;;;8.18;;
82475;SDS011;72099;43.176;76.872;2024-02-04T06:12:21;17.23;;;7.95;;
82475;SDS011;72099;43.176;76.872;2024-02-04T06:15:22;17.98;;;8.55;;
82475;SDS011;72099;43.176;76.872;2024-02-04T06:21:23;16.38;;;8.73;;
82475;SDS011;72099;43.176;76.872;2024-02-04T06:24:24;17.55;;;9.25;;
82475;SDS011;72099;43.176;76.872;2024-02-04T06:27:25;15.88;;;8.90;;
82475;SDS011;72099;43.176;76.872;2024-02-04T06:30:26;17.98;;;8.90;;
82475;SDS011;72099;43.176;76.872;2024-02-04T06:33:27;19.45;;;10.80;;
82475;SDS011;72099;43.176;76.872;2024-02-04T06:36:43;17.52;;;10.43;;
82475;SDS011;72099;43.176;76.872;2024-02-04T06:39:46;21.08;;;11.05;;
82475;SDS011;72099;43.176;76.872;2024-02-04T06:42:47;19.02;;;10.20;;
82475;SDS011;72099;43.176;76.872;2024-02-04T06:45:48;15.20;;;8.20;;
82475;SDS011;72099;43.176;76.872;2024-02-04T06:48:49;10.55;;;6.38;;
82475;SDS011;72099;43.176;76.872;2024-02-04T06:51:49;15.27;;;8.00;;
82475;SDS011;72099;43.176;76.872;2024-02-04T06:54:52;17.33;;;8.27;;
82475;SDS011;72099;43.176;76.872;2024-02-04T07:01:19;14.20;;;7.65;;
82475;SDS011;72099;43.176;76.872;2024-02-04T07:04:20;16.27;;;8.43;;
82475;SDS011;72099;43.176;76.872;2024-02-04T07:07:22;16.27;;;8.68;;
82475;SDS011;72099;43.176;76.872;2024-02-04T07:10:23;19.48;;;8.80;;
82475;SDS011;72099;43.176;76.872;2024-02-04T07:13:23;15.05;;;8.18;;
82475;SDS011;72099;43.176;76.872;2024-02-04T07:16:25;12.38;;;7.35;;
82475;SDS011;72099;43.176;76.872;2024-02-04T07:19:26;16.35;;;8.20;;
82475;SDS011;72099;43.176;76.872;2024-02-04T07:22:26;12.10;;;7.25;;
82475;SDS011;72099;43.176;76.872;2024-02-04T07:25:27;12.98;;;7.35;;
82475;SDS011;72099;43.176;76.872;2024-02-04T07:28:28;17.27;;;9.45;;
82475;SDS011;72099;43.176;76.872;2024-02-04T07:31:29;16.80;;;9.80;;
82475;SDS011;72099;43.176;76.872;2024-02-04T07:34:30;27.38;;;13.40;;
82475;SDS011;72099;43.176;76.872;2024-02-04T07:37:31;21.77;;;10.88;;
82475;SDS011;72099;43.176;76.872;2024-02-04T07:40:32;16.75;;;9.73;;
82475;SDS011;72099;43.176;76.872;2024-02-04T07:43:33;17.98;;;9.88;;
82475;SDS011;72099;43.176;76.872;2024-02-04T07:46:34;20.98;;;10.88;;
82475;SDS011;72099;43.176;76.872;2024-02-04T07:49:35;17.42;;;9.32;;
82475;SDS011;72099;43.176;76.872;2024-02-04T07:52:35;19.65;;;10.23;;
82475;SDS011;72099;43.176;76.872;2024-02-04T07:55:36;21.02;;;11.05;;
82475;SDS011;72099;43.176;76.872;2024-02-04T07:58:37;19.85;;;11.32;;
82475;SDS011;72099;43.176;76.872;2024-02-04T08:01:38;19.77;;;10.32;;
82475;SDS011;72099;43.176;76.872;2024-02-04T08:04:42;17.23;;;9.18;;
82475;SDS011;72099;43.176;76.872;2024-02-04T08:07:43;13.27;;;7.90;;
82475;SDS011;72099;43.176;76.872;2024-02-04T08:10:43;14.35;;;7.60;;
82475;SDS011;72099;43.176;76.872;2024-02-04T08:13:44;10.80;;;6.63;;
82475;SDS011;72099;43.176;76.872;2024-02-04T08:16:45;13.77;;;7.50;;
82475;SDS011;72099;43.176;76.872;2024-02-04T08:19:48;11.70;;;6.47;;
82475;SDS011;72099;43.176;76.872;2024-02-04T08:22:49;8.43;;;5.15;;
82475;SDS011;72099;43.176;76.872;2024-02-04T08:25:50;9.63;;;5.32;;
82475;SDS011;72099;43.176;76.872;2024-02-04T08:28:51;12.43;;;6.97;;
82475;SDS011;72099;43.176;76.872;2024-02-04T08:31:52;11.15;;;6.47;;
82475;SDS011;72099;43.176;76.872;2024-02-04T08:34:53;10.27;;;6.45;;
82475;SDS011;72099;43.176;76.872;2024-02-04T08:37:54;8.73;;;6.18;;
82475;SDS011;72099;43.176;76.872;2024-02-04T08:40:55;10.75;;;6.10;;
82475;SDS011;72099;43.176;76.872;2024-02-04T08:43:55;9.68;;;6.45;;
82475;SDS011;72099;43.176;76.872;2024-02-04T08:46:56;9.63;;;6.22;;
82475;SDS011;72099;43.176;76.872;2024-02-04T08:49:58;14.68;;;8.15;;
82475;SDS011;72099;43.176;76.872;2024-02-04T08:52:59;14.07;;;7.13;;
82475;SDS011;72099;43.176;76.872;2024-02-04T08:56:00;13.55;;;7.32;;
82475;SDS011;72099;43.176;76.872;2024-02-04T08:59:01;13.85;;;8.13;;
82475;SDS011;72099;43.176;76.872;2024-02-04T09:02:02;19.50;;;10.05;;
82475;SDS011;72099;43.176;76.872;2024-02-04T09:05:03;21.33;;;12.15;;
82475;SDS011;72099;43.176;76.872;2024-02-04T09:08:04;27.45;;;16.52;;
82475;SDS011;72099;43.176;76.872;2024-02-04T09:11:05;29.02;;;18.45;;
82475;SDS011;72099;43.176;76.872;2024-02-04T09:14:06;36.55;;;19.88;;
82475;SDS011;72099;43.176;76.872;2024-02-04T09:17:07;42.05;;;22.25;;
82475;SDS011;72099;43.176;76.872;2024-02-04T09:20:10;50.13;;;26.05;;
82475;SDS011;72099;43.176;76.872;2024-02-04T09:23:11;30.33;;;18.13;;
82475;SDS011;72099;43.176;76.872;2024-02-04T09:26:12;51.40;;;24.40;;
82475;SDS011;72099;43.176;76.872;2024-02-04T09:29:13;50.95;;;27.27;;
82475;SDS011;72099;43.176;76.872;2024-02-04T09:32:13;57.35;;;29.17;;
82475;SDS011;72099;43.176;76.872;2024-02-04T09:35:14;63.47;;;31.08;;
82475;SDS011;72099;43.176;76.872;2024-02-04T09:38:15;61.35;;;31.10;;
82475;SDS011;72099;43.176;76.872;2024-02-04T09:41:16;54.58;;;29.08;;
82475;SDS011;72099;43.176;76.872;2024-02-04T09:44:17;56.83;;;27.85;;
82475;SDS011;72099;43.176;76.872;2024-02-04T09:47:19;57.58;;;28.38;;
82475;SDS011;72099;43.176;76.872;2024-02-04T09:50:20;57.75;;;26.08;;
82475;SDS011;72099;43.176;76.872;2024-02-04T09:53:24;59.03;;;27.70;;
82475;SDS011;72099;43.176;76.872;2024-02-04T09:56:33;63.58;;;30.85;;
82475;SDS011;72099;43.176;76.872;2024-02-04T09:59:36;70.45;;;34.58;;
82475;SDS011;72099;43.176;76.872;2024-02-04T10:05:38;69.97;;;32.15;;
82475;SDS011;72099;43.176;76.872;2024-02-04T10:11:39;78.05;;;32.47;;
82475;SDS011;72099;43.176;76.872;2024-02-04T10:17:46;70.97;;;33.70;;
82475;SDS011;72099;43.176;76.872;2024-02-04T10:20:47;78.43;;;37.55;;
82475;SDS011;72099;43.176;76.872;2024-02-04T10:23:49;88.18;;;39.97;;
82475;SDS011;72099;43.176;76.872;2024-02-04T10:26:50;86.35;;;38.15;;
82475;SDS011;72099;43.176;76.872;2024-02-04T10:29:51;96.75;;;43.97;;
82475;SDS011;72099;43.176;76.872;2024-02-04T10:32:53;92.18;;;43.05;;
82475;SDS011;72099;43.176;76.872;2024-02-04T10:35:54;100.00;;;45.67;;
82475;SDS011;72099;43.176;76.872;2024-02-04T10:38:55;97.82;;;45.25;;
82475;SDS011;72099;43.176;76.872;2024-02-04T10:41:56;104.03;;;46.17;;
82475;SDS011;72099;43.176;76.872;2024-02-04T10:45:06;111.35;;;48.05;;
82475;SDS011;72099;43.176;76.872;2024-02-04T10:48:10;103.75;;;46.50;;
82475;SDS011;72099;43.176;76.872;2024-02-04T10:51:14;96.65;;;46.97;;
82475;SDS011;72099;43.176;76.872;2024-02-04T10:54:15;108.38;;;50.42;;
82475;SDS011;72099;43.176;76.872;2024-02-04T10:57:21;111.85;;;51.33;;
82475;SDS011;72099;43.176;76.872;2024-02-04T11:00:27;105.43;;;48.20;;
82475;SDS011;72099;43.176;76.872;2024-02-04T11:03:29;105.80;;;49.15;;
82475;SDS011;72099;43.176;76.872;2024-02-04T11:06:31;103.63;;;46.65;;
82475;SDS011;72099;43.176;76.872;2024-02-04T11:09:33;104.13;;;48.72;;
82475;SDS011;72099;43.176;76.872;2024-02-04T11:12:34;110.78;;;49.58;;
82475;SDS011;72099;43.176;76.872;2024-02-04T11:15:37;101.30;;;47.40;;
82475;SDS011;72099;43.176;76.872;2024-02-04T11:25:42;96.97;;;46.88;;
82475;SDS011;72099;43.176;76.872;2024-02-04T11:28:46;90.20;;;43.95;;
82475;SDS011;72099;43.176;76.872;2024-02-04T11:31:47;105.95;;;50.55;;
82475;SDS011;72099;43.176;76.872;2024-02-04T11:37:54;103.63;;;46.22;;
82475;SDS011;72099;43.176;76.872;2024-02-04T11:43:57;109.20;;;47.70;;
82475;SDS011;72099;43.176;76.872;2024-02-04T11:47:01;166.30;;;67.45;;
82475;SDS011;72099;43.176;76.872;2024-02-04T11:50:02;124.60;;;53.58;;
82475;SDS011;72099;43.176;76.872;2024-02-04T11:53:11;111.70;;;50.75;;
82475;SDS011;72099;43.176;76.872;2024-02-04T11:56:13;131.80;;;58.47;;
82475;SDS011;72099;43.176;76.872;2024-02-04T11:59:14;126.45;;;55.42;;
82475;SDS011;72099;43.176;76.872;2024-02-04T12:02:18;114.30;;;51.55;;
82475;SDS011;72099;43.176;76.872;2024-02-04T12:05:20;121.90;;;57.30;;
82475;SDS011;72099;43.176;76.872;2024-02-04T12:08:21;115.32;;;54.55;;
82475;SDS011;72099;43.176;76.872;2024-02-04T12:11:23;120.10;;;52.30;;
82475;SDS011;72099;43.176;76.872;2024-02-04T12:14:24;126.70;;;51.80;;
82475;SDS011;72099;43.176;76.872;2024-02-04T12:17:26;110.35;;;49.08;;
82475;SDS011;72099;43.176;76.872;2024-02-04T12:20:27;108.53;;;47.20;;
82475;SDS011;72099;43.176;76.872;2024-02-04T12:23:28;117.43;;;50.22;;
82475;SDS011;72099;43.176;76.872;2024-02-04T12:26:29;108.40;;;45.33;;
82475;SDS011;72099;43.176;76.872;2024-02-04T12:29:30;99.97;;;48.13;;
82475;SDS011;72099;43.176;76.872;2024-02-04T12:32:32;111.70;;;46.30;;
82475;SDS011;72099;43.176;76.872;2024-02-04T12:35:34;95.18;;;41.55;;
82475;SDS011;72099;43.176;76.872;2024-02-04T12:38:35;79.72;;;35.78;;
82475;SDS011;72099;43.176;76.872;2024-02-04T12:41:36;72.50;;;31.67;;
82475;SDS011;72099;43.176;76.872;2024-02-04T12:44:38;74.32;;;31.33;;
82475;SDS011;72099;43.176;76.872;2024-02-04T12:47:39;64.50;;;29.52;;
82475;SDS011;72099;43.176;76.872;2024-02-04T12:50:40;58.90;;;22.40;;
82475;SDS011;72099;43.176;76.872;2024-02-04T12:53:41;52.97;;;20.25;;
82475;SDS011;72099;43.176;76.872;2024-02-04T12:56:52;49.55;;;20.83;;
82475;SDS011;72099;43.176;76.872;2024-02-04T13:00:03;46.55;;;19.17;;
82475;SDS011;72099;43.176;76.872;2024-02-04T13:03:08;48.72;;;19.90;;
82475;SDS011;72099;43.176;76.872;2024-02-04T13:06:09;43.10;;;19.13;;
82475;SDS011;72099;43.176;76.872;2024-02-04T13:09:10;36.15;;;16.40;;
82475;SDS011;72099;43.176;76.872;2024-02-04T13:12:14;42.42;;;17.08;;
82475;SDS011;72099;43.176;76.872;2024-02-04T13:15:16;38.67;;;16.38;;
82475;SDS011;72099;43.176;76.872;2024-02-04T13:18:16;45.90;;;16.17;;
82475;SDS011;72099;43.176;76.872;2024-02-04T13:21:17;35.75;;;15.55;;
82475;SDS011;72099;43.176;76.872;2024-02-04T13:24:21;33.03;;;14.30;;
82475;SDS011;72099;43.176;76.872;2024-02-04T13:27:22;28.58;;;12.88;;
82475;SDS011;72099;43.176;76.872;2024-02-04T13:30:23;30.98;;;13.63;;
82475;SDS011;72099;43.176;76.872;2024-02-04T13:33:24;29.88;;;12.98;;
82475;SDS011;72099;43.176;76.872;2024-02-04T13:36:25;29.50;;;13.35;;
82475;SDS011;72099;43.176;76.872;2024-02-04T13:39:25;29.90;;;14.30;;
82475;SDS011;72099;43.176;76.872;2024-02-04T13:42:26;26.05;;;11.43;;
82475;SDS011;72099;43.176;76.872;2024-02-04T13:45:27;25.70;;;9.68;;
82475;SDS011;72099;43.176;76.872;2024-02-04T13:48:28;24.30;;;9.73;;
82475;SDS011;72099;43.176;76.872;2024-02-04T13:51:29;21.60;;;9.13;;
82475;SDS011;72099;43.176;76.872;2024-02-04T13:54:30;23.13;;;10.15;;
82475;SDS011;72099;43.176;76.872;2024-02-04T13:57:31;21.05;;;9.52;;
82475;SDS011;72099;43.176;76.872;2024-02-04T14:00:33;23.02;;;9.13;;
82475;SDS011;72099;43.176;76.872;2024-02-04T14:03:33;20.60;;;9.55;;
82475;SDS011;72099;43.176;76.872;2024-02-04T14:06:35;24.75;;;10.90;;
82475;SDS011;72099;43.176;76.872;2024-02-04T14:09:36;29.33;;;12.18;;
82475;SDS011;72099;43.176;76.872;2024-02-04T14:12:37;28.30;;;10.68;;
82475;SDS011;72099;43.176;76.872;2024-02-04T14:15:39;19.92;;;8.93;;
82475;SDS011;72099;43.176;76.872;2024-02-04T14:18:40;21.05;;;8.70;;
82475;SDS011;72099;43.176;76.872;2024-02-04T14:21:45;25.88;;;13.10;;
82475;SDS011;72099;43.176;76.872;2024-02-04T14:24:46;20.13;;;8.15;;
82475;SDS011;72099;43.176;76.872;2024-02-04T14:27:59;21.23;;;9.07;;
82475;SDS011;72099;43.176;76.872;2024-02-04T14:31:00;21.15;;;9.35;;
82475;SDS011;72099;43.176;76.872;2024-02-04T14:34:01;22.58;;;9.45;;
82475;SDS011;72099;43.176;76.872;2024-02-04T14:37:02;17.73;;;7.68;;
82475;SDS011;72099;43.176;76.872;2024-02-04T14:40:03;24.75;;;9.75;;
82475;SDS011;72099;43.176;76.872;2024-02-04T14:43:06;24.40;;;9.60;;
82475;SDS011;72099;43.176;76.872;2024-02-04T14:46:07;22.80;;;8.98;;
82475;SDS011;72099;43.176;76.872;2024-02-04T14:49:08;21.02;;;7.95;;
82475;SDS011;72099;43.176;76.872;2024-02-04T14:52:10;18.00;;;8.38;;
82475;SDS011;72099;43.176;76.872;2024-02-04T14:55:11;17.35;;;7.38;;
82475;SDS011;72099;43.176;76.872;2024-02-04T15:01:45;18.60;;;7.03;;
82475;SDS011;72099;43.176;76.872;2024-02-04T15:04:48;17.48;;;6.35;;
82475;SDS011;72099;43.176;76.872;2024-02-04T15:07:57;19.88;;;7.38;;
82475;SDS011;72099;43.176;76.872;2024-02-04T15:10:58;24.10;;;10.65;;
82475;SDS011;72099;43.176;76.872;2024-02-04T15:13:59;23.75;;;10.25;;
82475;SDS011;72099;43.176;76.872;2024-02-04T15:17:01;25.83;;;10.40;;
82475;SDS011;72099;43.176;76.872;2024-02-04T15:20:02;26.90;;;10.80;;
82475;SDS011;72099;43.176;76.872;2024-02-04T15:26:05;31.52;;;12.68;;
82475;SDS011;72099;43.176;76.872;2024-02-04T15:29:08;33.08;;;12.88;;
82475;SDS011;72099;43.176;76.872;2024-02-04T15:32:14;30.60;;;11.50;;
82475;SDS011;72099;43.176;76.872;2024-02-04T15:35:15;28.20;;;10.82;;
82475;SDS011;72099;43.176;76.872;2024-02-04T15:38:17;27.90;;;11.20;;
82475;SDS011;72099;43.176;76.872;2024-02-04T15:41:18;23.95;;;9.30;;
82475;SDS011;72099;43.176;76.872;2024-02-04T15:44:19;20.95;;;8.05;;
82475;SDS011;72099;43.176;76.872;2024-02-04T15:47:22;23.55;;;8.68;;
82475;SDS011;72099;43.176;76.872;2024-02-04T15:50:25;20.55;;;8.27;;
82475;SDS011;72099;43.176;76.872;2024-02-04T15:53:27;20.83;;;8.07;;
82475;SDS011;72099;43.176;76.872;2024-02-04T15:56:29;20.48;;;8.30;;
82475;SDS011;72099;43.176;76.872;2024-02-04T15:59:47;21.88;;;7.88;;
82475;SDS011;72099;43.176;76.872;2024-02-04T16:02:51;16.98;;;7.65;;
82475;SDS011;72099;43.176;76.872;2024-02-04T16:05:53;16.65;;;6.95;;
82475;SDS011;72099;43.176;76.872;2024-02-04T16:08:54;17.40;;;7.68;;
82475;SDS011;72099;43.176;76.872;2024-02-04T16:12:02;14.98;;;6.30;;
82475;SDS011;72099;43.176;76.872;2024-02-04T16:15:06;14.57;;;6.20;;
82475;SDS011;72099;43.176;76.872;2024-02-04T16:18:10;19.48;;;7.43;;
82475;SDS011;72099;43.176;76.872;2024-02-04T16:21:11;17.25;;;6.25;;
82475;SDS011;72099;43.176;76.872;2024-02-04T16:24:12;9.23;;;4.78;;
82475;SDS011;72099;43.176;76.872;2024-02-04T16:27:12;11.70;;;5.45;;
82475;SDS011;72099;43.176;76.872;2024-02-04T16:30:14;11.52;;;5.03;;
82475;SDS011;72099;43.176;76.872;2024-02-04T16:33:17;12.60;;;4.65;;
82475;SDS011;72099;43.176;76.872;2024-02-04T16:36:17;10.02;;;4.65;;
82475;SDS011;72099;43.176;76.872;2024-02-04T16:39:19;13.15;;;4.53;;
82475;SDS011;72099;43.176;76.872;2024-02-04T16:42:20;8.65;;;3.65;;
82475;SDS011;72099;43.176;76.872;2024-02-04T16:45:21;9.57;;;4.35;;
82475;SDS011;72099;43.176;76.872;2024-02-04T16:48:22;8.05;;;3.17;;
82475;SDS011;72099;43.176;76.872;2024-02-04T16:51:23;8.77;;;3.22;;
82475;SDS011;72099;43.176;76.872;2024-02-04T16:54:25;9.75;;;3.65;;
82475;SDS011;72099;43.176;76.872;2024-02-04T16:57:28;9.95;;;3.47;;
82475;SDS011;72099;43.176;76.872;2024-02-04T17:00:30;8.52;;;3.30;;
82475;SDS011;72099;43.176;76.872;2024-02-04T17:03:31;6.75;;;2.97;;
82475;SDS011;72099;43.176;76.872;2024-02-04T17:06:32;7.68;;;2.60;;
82475;SDS011;72099;43.176;76.872;2024-02-04T17:09:33;7.43;;;2.88;;
82475;SDS011;72099;43.176;76.872;2024-02-04T17:12:35;7.22;;;3.08;;
82475;SDS011;72099;43.176;76.872;2024-02-04T17:15:36;8.82;;;3.00;;
82475;SDS011;72099;43.176;76.872;2024-02-04T17:21:55;6.47;;;2.85;;
82475;SDS011;72099;43.176;76.872;2024-02-04T17:24:58;9.35;;;2.88;;
82475;SDS011;72099;43.176;76.872;2024-02-04T17:28:03;10.10;;;3.60;;
82475;SDS011;72099;43.176;76.872;2024-02-04T17:31:05;11.35;;;4.18;;
82475;SDS011;72099;43.176;76.872;2024-02-04T17:34:07;7.40;;;3.20;;
82475;SDS011;72099;43.176;76.872;2024-02-04T17:37:08;9.93;;;3.55;;
82475;SDS011;72099;43.176;76.872;2024-02-04T17:40:09;9.07;;;3.25;;
82475;SDS011;72099;43.176;76.872;2024-02-04T17:43:11;7.38;;;3.60;;
82475;SDS011;72099;43.176;76.872;2024-02-04T17:46:11;8.35;;;3.05;;
82475;SDS011;72099;43.176;76.872;2024-02-04T17:49:13;6.25;;;2.85;;
82475;SDS011;72099;43.176;76.872;2024-02-04T17:52:15;7.70;;;3.08;;
82475;SDS011;72099;43.176;76.872;2024-02-04T17:55:16;5.88;;;2.80;;
82475;SDS011;72099;43.176;76.872;2024-02-04T17:58:17;9.05;;;3.47;;
82475;SDS011;72099;43.176;76.872;2024-02-04T18:01:20;5.13;;;2.88;;
82475;SDS011;72099;43.176;76.872;2024-02-04T18:04:21;7.55;;;2.80;;
82475;SDS011;72099;43.176;76.872;2024-02-04T18:07:22;3.78;;;2.30;;
82475;SDS011;72099;43.176;76.872;2024-02-04T18:10:23;6.38;;;2.92;;
82475;SDS011;72099;43.176;76.872;2024-02-04T18:13:24;7.97;;;3.50;;
82475;SDS011;72099;43.176;76.872;2024-02-04T18:16:25;8.60;;;2.97;;
82475;SDS011;72099;43.176;76.872;2024-02-04T18:19:26;6.80;;;3.15;;
82475;SDS011;72099;43.176;76.872;2024-02-04T18:22:27;7.85;;;2.88;;
82475;SDS011;72099;43.176;76.872;2024-02-04T18:25:27;7.03;;;2.70;;
82475;SDS011;72099;43.176;76.872;2024-02-04T18:28:29;9.05;;;2.47;;